Time;durP1;ratioP1;P1;durP2;ratioP2;P2;SDS_P1;SDS_P2;PMS_P1;PMS_P2;Temp;Humidity;BMP_temperature;BMP_pressure;BME280_temperature;BME280_humidity;BME280_pressure;Samples;Min_cycle;Max_cycle;Signal;HPM_P1;HPM_P2
2022/09/06 00:01:13;;;;;;;3.47;1.90;;;20.20;90.10;;;;;;6131092;23;20024;-86
2022/09/06 00:03:39;;;;;;;5.18;2.22;;;20.20;90.10;;;;;;6107383;23;20017;-88
2022/09/06 00:06:52;;;;;;;4.22;2.05;;;20.20;90.20;;;;;;6131278;23;20108;-89
2022/09/06 00:10:13;;;;;;;3.45;1.73;;;20.10;90.20;;;;;;6174217;23;20028;-86
2022/09/06 00:12:42;;;;;;;3.97;1.90;;;20.10;90.30;;;;;;6131049;23;20017;-88
2022/09/06 00:15:09;;;;;;;3.58;2.00;;;20.10;90.20;;;;;;6131336;23;20068;-89
2022/09/06 00:17:40;;;;;;;6.07;2.30;;;20.00;90.30;;;;;;6131048;23;20460;-90
2022/09/06 00:20:26;;;;;;;2.97;1.75;;;20.00;90.30;;;;;;6131754;23;20024;-88
2022/09/06 00:22:58;;;;;;;7.63;2.13;;;19.90;90.30;;;;;;6131514;23;20021;-89
2022/09/06 00:25:25;;;;;;;3.80;2.05;;;20.00;90.40;;;;;;6131418;23;20021;-89
2022/09/06 00:27:59;;;;;;;3.58;2.08;;;19.90;90.40;;;;;;6131455;23;20082;-90
2022/09/06 00:30:27;;;;;;;3.35;1.60;;;19.90;90.50;;;;;;6131399;23;20323;-87
2022/09/06 00:32:53;;;;;;;4.10;2.00;;;19.90;90.50;;;;;;6155606;23;20021;-88
2022/09/06 00:35:20;;;;;;;4.05;2.10;;;19.80;90.50;;;;;;6108000;23;20017;-88
2022/09/06 00:37:46;;;;;;;4.13;2.13;;;19.80;90.50;;;;;;6131057;23;20028;-89
2022/09/06 00:40:13;;;;;;;4.22;2.10;;;19.80;90.50;;;;;;6131391;23;20017;-90
2022/09/06 00:42:39;;;;;;;;;;;19.80;90.60;;;;;;6131762;23;20024;-90
2022/09/06 00:45:06;;;;;;;4.35;2.22;;;19.70;90.60;;;;;;6131281;23;19970;-88
2022/09/06 00:47:34;;;;;;;4.40;2.13;;;19.70;90.50;;;;;;6131158;23;20056;-88
2022/09/06 00:50:01;;;;;;;4.07;2.20;;;19.70;90.60;;;;;;6131501;23;20013;-88
2022/09/06 00:52:28;;;;;;;3.47;1.90;;;19.70;90.60;;;;;;6107549;23;20014;-88
2022/09/06 00:54:55;;;;;;;4.22;2.40;;;19.70;90.70;;;;;;6106894;23;20331;-88
2022/09/06 00:57:25;;;;;;;4.97;2.35;;;19.60;90.60;;;;;;6131105;23;20056;-89
2022/09/06 00:59:53;;;;;;;3.63;2.03;;;19.60;90.70;;;;;;6131027;23;20017;-88
2022/09/06 01:02:19;;;;;;;4.13;2.30;;;19.60;90.70;;;;;;6131238;23;20096;-89
2022/09/06 01:04:47;;;;;;;;;;;19.50;90.80;;;;;;6131278;23;20021;-88
2022/09/06 01:07:18;;;;;;;3.65;2.00;;;19.50;90.90;;;;;;6155309;23;19912;-89
2022/09/06 01:10:15;;;;;;;6.00;2.10;;;19.50;91.00;;;;;;6130468;23;20044;-88
2022/09/06 01:13:08;;;;;;;3.88;2.10;;;19.50;90.80;;;;;;6130411;23;20025;-87
2022/09/06 01:16:05;;;;;;;3.80;2.28;;;19.50;91.00;;;;;;6130584;23;20017;-87
2022/09/06 01:19:09;;;;;;;3.50;2.20;;;19.40;90.90;;;;;;6130291;23;20091;-88
2022/09/06 01:21:47;;;;;;;5.45;2.50;;;19.40;90.90;;;;;;6132109;23;20082;-88
2022/09/06 01:24:40;;;;;;;3.95;2.20;;;19.40;90.90;;;;;;6130225;23;20017;-88
2022/09/06 01:27:34;;;;;;;4.03;2.13;;;19.40;90.90;;;;;;6130595;23;20073;-88
2022/09/06 01:30:09;;;;;;;4.03;2.17;;;19.40;91.10;;;;;;6130560;23;20045;-87
2022/09/06 01:32:47;;;;;;;4.10;2.15;;;19.30;91.00;;;;;;6130556;23;20025;-87
2022/09/06 01:35:13;;;;;;;3.70;2.05;;;19.30;91.00;;;;;;6130645;23;20017;-87
2022/09/06 01:37:39;;;;;;;5.00;2.53;;;19.30;91.00;;;;;;6130627;23;20021;-88
2022/09/06 01:40:05;;;;;;;6.20;2.33;;;19.20;91.10;;;;;;6130404;23;20024;-88
2022/09/06 01:42:32;;;;;;;;;;;19.30;91.30;;;;;;6106771;23;20319;-88
2022/09/06 01:45:14;;;;;;;3.85;2.08;;;19.30;91.70;;;;;;6131003;23;19920;-87
2022/09/06 01:47:53;;;;;;;3.35;2.10;;;19.30;91.30;;;;;;6130324;23;20017;-87
2022/09/06 01:50:40;;;;;;;3.97;2.50;;;19.20;91.20;;;;;;6130718;23;20021;-87
2022/09/06 01:53:36;;;;;;;4.20;2.30;;;19.10;91.30;;;;;;6130215;23;20507;-88
2022/09/06 01:56:34;;;;;;;4.25;2.15;;;19.10;91.40;;;;;;6130999;23;20509;-88
2022/09/06 01:59:24;;;;;;;5.43;2.40;;;19.10;91.70;;;;;;6131980;23;20028;-87
2022/09/06 02:02:02;;;;;;;4.28;2.20;;;19.10;91.60;;;;;;6131696;23;20017;-87
2022/09/06 02:04:35;;;;;;;4.32;2.22;;;19.10;91.50;;;;;;6131425;23;20017;-88
2022/09/06 02:07:09;;;;;;;3.65;2.25;;;19.00;91.50;;;;;;6131629;23;20072;-89
2022/09/06 02:09:40;;;;;;;4.22;2.30;;;19.00;91.60;;;;;;6131388;23;20518;-87
2022/09/06 02:12:11;;;;;;;4.70;2.22;;;19.00;91.70;;;;;;6131471;23;20017;-87
2022/09/06 02:14:44;;;;;;;3.90;2.40;;;19.00;92.00;;;;;;6131412;23;20027;-87
2022/09/06 02:17:13;;;;;;;4.95;2.50;;;18.90;91.70;;;;;;6131324;23;20446;-87
2022/09/06 02:19:46;;;;;;;4.18;2.22;;;18.90;91.70;;;;;;6131927;23;20486;-87
2022/09/06 02:22:16;;;;;;;5.45;2.80;;;18.80;91.80;;;;;;6131911;23;20013;-87
2022/09/06 02:24:44;;;;;;;4.72;2.53;;;18.80;91.80;;;;;;6131293;23;20024;-88
2022/09/06 02:27:11;;;;;;;4.70;2.53;;;18.80;91.90;;;;;;6131389;23;20024;-87
2022/09/06 02:29:37;;;;;;;4.13;2.35;;;18.80;91.90;;;;;;6131365;23;20327;-88
2022/09/06 02:32:13;;;;;;;4.97;2.80;;;18.70;91.90;;;;;;6131841;23;20127;-87
2022/09/06 02:34:39;;;;;;;4.20;2.30;;;18.80;92.00;;;;;;6131553;23;20017;-88
2022/09/06 02:37:06;;;;;;;4.85;2.78;;;18.80;92.00;;;;;;6131517;23;20060;-88
2022/09/06 02:39:33;;;;;;;4.70;2.38;;;18.80;92.00;;;;;;6131679;23;20017;-89
2022/09/06 02:41:59;;;;;;;;;;;18.80;92.10;;;;;;6131907;23;20032;-89
2022/09/06 02:44:25;;;;;;;4.78;2.75;;;18.80;92.30;;;;;;6131570;23;19923;-88
2022/09/06 02:46:50;;;;;;;4.50;2.60;;;18.80;92.10;;;;;;6131499;23;20021;-88
2022/09/06 02:49:16;;;;;;;4.18;2.55;;;18.80;92.10;;;;;;6131767;23;20138;-89
2022/09/06 02:51:42;;;;;;;4.00;2.38;;;18.80;92.10;;;;;;6131384;23;20017;-88
2022/09/06 02:54:07;;;;;;;4.45;2.70;;;18.80;92.10;;;;;;6107096;23;20021;-88
2022/09/06 02:56:35;;;;;;;5.18;2.78;;;18.80;92.10;;;;;;6131558;23;20020;-88
2022/09/06 02:59:03;;;;;;;4.28;2.67;;;18.70;92.10;;;;;;6107768;23;20028;-88
2022/09/06 03:01:29;;;;;;;4.20;2.63;;;18.70;92.20;;;;;;6131406;23;20028;-88
2022/09/06 03:03:55;;;;;;;4.57;2.40;;;18.70;92.20;;;;;;6131273;23;20013;-88
2022/09/06 03:06:21;;;;;;;;;;;18.70;92.20;;;;;;6131857;23;20023;-88
2022/09/06 03:08:47;;;;;;;3.55;2.30;;;18.70;92.40;;;;;;6130594;23;19916;-87
2022/09/06 03:11:13;;;;;;;4.75;2.83;;;18.70;92.20;;;;;;6131177;23;20781;-87
2022/09/06 03:13:57;;;;;;;3.58;2.22;;;18.70;92.40;;;;;;6131582;23;20048;-86
2022/09/06 03:16:23;;;;;;;5.20;3.13;;;18.70;92.30;;;;;;6131130;23;20100;-86
2022/09/06 03:18:49;;;;;;;4.63;2.83;;;18.60;92.20;;;;;;6106757;23;20021;-87
2022/09/06 03:21:15;;;;;;;5.15;2.80;;;18.60;92.20;;;;;;6131324;23;20021;-87
2022/09/06 03:23:40;;;;;;;5.00;2.85;;;18.60;92.30;;;;;;6131338;23;20114;-87
2022/09/06 03:26:06;;;;;;;4.75;2.92;;;18.60;92.30;;;;;;6131213;23;20048;-87
2022/09/06 03:28:33;;;;;;;4.97;2.90;;;18.50;92.40;;;;;;6131222;23;20021;-87
2022/09/06 03:30:58;;;;;;;5.30;2.75;;;18.50;92.40;;;;;;6131051;23;20082;-87
2022/09/06 03:33:24;;;;;;;6.18;3.10;;;18.50;92.40;;;;;;6130892;23;20442;-87
2022/09/06 03:35:53;;;;;;;5.00;2.97;;;18.50;92.50;;;;;;6130769;23;20438;-88
2022/09/06 03:38:22;;;;;;;4.47;2.80;;;18.50;92.50;;;;;;6181907;23;20017;-87
2022/09/06 03:40:48;;;;;;;5.10;2.92;;;18.50;92.60;;;;;;6155652;23;20571;-86
2022/09/06 03:43:15;;;;;;;5.63;3.00;;;18.50;92.60;;;;;;6155480;23;20051;-87
2022/09/06 03:45:46;;;;;;;5.30;3.20;;;18.40;92.60;;;;;;6130986;23;20013;-87
2022/09/06 03:48:12;;;;;;;4.90;2.83;;;18.50;92.60;;;;;;6130645;23;20074;-86
2022/09/06 03:50:42;;;;;;;5.18;3.10;;;18.40;92.60;;;;;;6130795;23;20071;-86
2022/09/06 03:53:07;;;;;;;5.43;3.17;;;18.40;92.70;;;;;;6130665;23;20013;-87
2022/09/06 03:55:33;;;;;;;5.13;3.15;;;18.40;92.70;;;;;;6130954;23;20020;-86
2022/09/06 03:57:59;;;;;;;5.40;3.28;;;18.40;92.70;;;;;;6130840;23;20021;-86
2022/09/06 04:00:24;;;;;;;6.18;3.63;;;18.40;92.70;;;;;;6130765;23;20431;-85
2022/09/06 04:02:50;;;;;;;6.30;3.22;;;18.40;92.80;;;;;;6156121;22;20020;-86
2022/09/06 04:05:16;;;;;;;5.90;3.65;;;18.40;92.80;;;;;;6131023;23;20078;-87
2022/09/06 04:07:42;;;;;;;;;;;18.40;92.90;;;;;;6131380;23;20434;-86
2022/09/06 04:10:08;;;;;;;5.55;3.40;;;18.40;93.10;;;;;;6130616;23;19961;-86
2022/09/06 04:12:34;;;;;;;4.60;3.20;;;18.40;92.90;;;;;;6155318;23;20372;-86
2022/09/06 04:15:00;;;;;;;5.80;3.53;;;18.40;92.90;;;;;;6130765;23;20073;-88
2022/09/06 04:17:25;;;;;;;5.10;3.50;;;18.30;93.00;;;;;;6130408;23;20096;-86
2022/09/06 04:19:51;;;;;;;7.68;3.60;;;18.30;93.00;;;;;;6130307;23;20100;-88
2022/09/06 04:22:17;;;;;;;6.03;3.60;;;18.30;93.10;;;;;;6082607;23;20461;-87
2022/09/06 04:24:42;;;;;;;5.97;3.78;;;18.30;93.10;;;;;;6130956;23;20039;-87
2022/09/06 04:27:08;;;;;;;5.35;3.38;;;18.30;93.10;;;;;;6130887;23;20024;-86
2022/09/06 04:29:34;;;;;;;5.43;3.65;;;18.30;93.20;;;;;;6130650;23;20017;-87
2022/09/06 04:31:59;;;;;;;7.00;3.70;;;18.20;93.30;;;;;;6130328;23;20099;-86
2022/09/06 04:34:25;;;;;;;5.70;3.53;;;18.30;93.30;;;;;;6131017;23;20036;-88
2022/09/06 04:36:51;;;;;;;6.68;3.67;;;18.20;93.40;;;;;;6131040;23;20463;-88
2022/09/06 04:39:17;;;;;;;6.05;3.72;;;18.30;93.50;;;;;;6155674;22;20017;-88
2022/09/06 04:41:42;;;;;;;6.78;4.05;;;18.30;93.50;;;;;;6131216;23;20082;-88
2022/09/06 04:44:08;;;;;;;6.40;3.63;;;18.30;93.50;;;;;;6130589;23;20093;-89
2022/09/06 04:46:43;;;;;;;5.60;3.90;;;18.30;93.50;;;;;;6130960;23;20024;-89
2022/09/06 04:49:15;;;;;;;5.80;3.80;;;18.30;93.50;;;;;;6131299;23;20020;-87
2022/09/06 04:51:41;;;;;;;6.47;3.72;;;18.30;93.70;;;;;;6130446;23;20024;-89
2022/09/06 04:54:07;;;;;;;7.28;4.35;;;18.30;93.70;;;;;;6131157;23;20342;-88
2022/09/06 04:56:32;;;;;;;6.25;3.97;;;18.30;93.80;;;;;;6131279;23;20095;-89
2022/09/06 04:58:58;;;;;;;5.68;3.95;;;18.30;93.80;;;;;;6131432;23;20624;-88
2022/09/06 05:01:25;;;;;;;6.25;3.70;;;18.30;93.90;;;;;;6130870;23;20013;-87
2022/09/06 05:03:50;;;;;;;6.35;4.07;;;18.20;94.00;;;;;;6154846;23;20021;-87
2022/09/06 05:06:21;;;;;;;8.43;3.83;;;18.30;94.10;;;;;;6130783;23;20013;-87
2022/09/06 05:08:47;;;;;;;6.13;4.07;;;18.30;94.10;;;;;;6129203;23;20101;-88
2022/09/06 05:11:13;;;;;;;6.05;3.75;;;18.30;94.20;;;;;;6130828;23;20016;-88
2022/09/06 05:13:39;;;;;;;5.68;3.58;;;18.30;94.20;;;;;;6130746;23;20032;-88
2022/09/06 05:16:07;;;;;;;6.82;3.78;;;18.30;94.30;;;;;;6130779;23;20036;-89
2022/09/06 05:18:33;;;;;;;6.20;3.88;;;18.30;94.30;;;;;;6130738;23;20021;-89
2022/09/06 05:20:59;;;;;;;6.82;4.18;;;18.30;94.30;;;;;;6130621;23;20018;-86
2022/09/06 05:23:28;;;;;;;6.63;4.03;;;18.30;94.30;;;;;;6155415;23;20395;-86
2022/09/06 05:25:54;;;;;;;7.32;3.85;;;18.30;94.30;;;;;;6130529;23;20056;-87
2022/09/06 05:28:20;;;;;;;;;;;18.20;94.30;;;;;;6155622;23;20347;-87
2022/09/06 05:30:46;;;;;;;6.50;4.15;;;18.20;94.80;;;;;;6129811;23;19923;-86
2022/09/06 05:33:17;;;;;;;6.43;4.30;;;18.20;94.50;;;;;;6154891;23;20024;-86
2022/09/06 05:35:43;;;;;;;7.03;4.30;;;18.10;94.60;;;;;;6129927;23;20017;-86
2022/09/06 05:38:09;;;;;;;7.90;4.68;;;18.10;94.60;;;;;;6130065;23;20077;-86
2022/09/06 05:40:34;;;;;;;7.40;4.70;;;18.10;94.80;;;;;;6130446;23;20013;-87
2022/09/06 05:43:00;;;;;;;6.25;4.32;;;18.10;94.90;;;;;;6154762;23;20017;-89
2022/09/06 05:45:26;;;;;;;6.68;4.22;;;18.00;95.00;;;;;;6129045;23;20014;-88
2022/09/06 05:47:52;;;;;;;6.88;4.40;;;18.10;95.10;;;;;;6130676;23;20017;-89
2022/09/06 05:50:18;;;;;;;6.70;4.25;;;18.10;95.00;;;;;;6130393;23;20036;-88
2022/09/06 05:52:44;;;;;;;7.25;4.82;;;18.10;95.10;;;;;;6106197;23;20446;-89
2022/09/06 05:55:10;;;;;;;7.70;4.55;;;18.20;95.20;;;;;;6129440;23;20017;-90
2022/09/06 05:57:35;;;;;;;6.80;4.43;;;18.20;95.10;;;;;;6103683;23;20021;-90
2022/09/06 06:00:01;;;;;;;8.27;4.63;;;18.20;95.10;;;;;;6128630;23;20519;-90
2022/09/06 06:02:27;;;;;;;6.82;4.65;;;18.20;95.10;;;;;;6128153;23;20021;-90
2022/09/06 06:04:53;;;;;;;8.35;4.55;;;18.20;95.20;;;;;;6130466;23;20419;-91
2022/09/06 06:07:19;;;;;;;7.38;4.70;;;18.30;95.30;;;;;;6130724;23;20096;-88
2022/09/06 06:09:44;;;;;;;6.50;4.40;;;18.30;95.30;;;;;;6154625;23;20052;-89
2022/09/06 06:12:10;;;;;;;6.75;4.55;;;18.40;95.40;;;;;;6130006;23;20024;-90
2022/09/06 06:14:36;;;;;;;6.40;4.45;;;18.40;95.40;;;;;;6130465;23;20017;-91
2022/09/06 06:17:02;;;;;;;8.10;4.45;;;18.40;95.40;;;;;;6106377;23;20009;-89
2022/09/06 06:19:37;;;;;;;8.00;4.25;;;18.50;95.50;;;;;;6131022;23;20021;-90
2022/09/06 06:22:03;;;;;;;6.75;4.70;;;18.50;95.50;;;;;;6130917;23;20017;-88
2022/09/06 06:24:29;;;;;;;6.63;4.50;;;18.60;95.50;;;;;;6081874;23;20096;-89
2022/09/06 06:26:54;;;;;;;7.22;4.53;;;18.70;95.50;;;;;;6130216;23;20049;-89
2022/09/06 06:29:20;;;;;;;7.57;4.90;;;18.60;95.40;;;;;;6130124;23;20062;-89
2022/09/06 06:31:46;;;;;;;7.97;5.10;;;18.70;95.40;;;;;;6154239;23;20070;-88
2022/09/06 06:34:11;;;;;;;8.65;4.95;;;18.60;95.50;;;;;;6130051;23;20404;-89
2022/09/06 06:36:37;;;;;;;7.85;5.38;;;18.70;95.50;;;;;;6106163;23;20014;-89
2022/09/06 06:39:05;;;;;;;6.70;4.75;;;18.60;95.50;;;;;;6129967;23;20048;-91
2022/09/06 06:41:32;;;;;;;7.15;5.00;;;18.60;95.60;;;;;;6129868;23;20013;-88
2022/09/06 06:43:59;;;;;;;;;;;18.60;95.60;;;;;;6156474;23;20021;-89
2022/09/06 06:46:27;;;;;;;6.80;5.03;;;18.60;95.90;;;;;;6131845;23;19923;-89
2022/09/06 06:48:54;;;;;;;7.45;5.25;;;18.70;95.70;;;;;;6131675;23;20055;-90
2022/09/06 06:51:21;;;;;;;7.28;5.03;;;18.60;95.70;;;;;;6131517;23;20017;-87
2022/09/06 06:53:48;;;;;;;9.30;5.38;;;18.60;95.70;;;;;;6131295;23;20021;-87
2022/09/06 06:56:28;;;;;;;7.65;5.03;;;18.60;95.70;;;;;;6155979;23;20017;-87
2022/09/06 06:58:56;;;;;;;8.57;5.28;;;18.60;95.90;;;;;;6131474;23;20060;-87
2022/09/06 07:01:23;;;;;;;7.30;5.05;;;18.60;95.80;;;;;;6131710;23;20056;-87
2022/09/06 07:03:50;;;;;;;8.27;5.30;;;18.70;95.80;;;;;;6131581;23;20494;-88
2022/09/06 07:06:16;;;;;;;7.55;5.32;;;18.60;95.90;;;;;;6131420;23;20021;-87
2022/09/06 07:08:42;;;;;;;;;;;18.60;95.90;;;;;;6131783;23;20024;-86
2022/09/06 07:11:10;;;;;;;9.20;5.60;;;18.60;96.30;;;;;;6131298;23;19916;-88
2022/09/06 07:13:36;;;;;;;8.02;5.65;;;18.60;96.10;;;;;;6131189;23;20021;-87
2022/09/06 07:16:11;;;;;;;9.07;5.72;;;18.60;96.10;;;;;;6131504;23;20045;-87
2022/09/06 07:18:40;;;;;;;8.52;5.60;;;18.60;96.20;;;;;;6131333;23;20338;-87
2022/09/06 07:21:08;;;;;;;8.43;5.53;;;18.60;96.20;;;;;;6131161;23;20403;-86
2022/09/06 07:23:34;;;;;;;7.28;4.90;;;18.60;96.30;;;;;;6131352;23;20096;-87
2022/09/06 07:25:59;;;;;;;8.35;5.88;;;18.70;96.30;;;;;;6107021;23;20021;-87
2022/09/06 07:28:25;;;;;;;8.02;5.55;;;18.70;96.40;;;;;;6131310;23;20338;-86
2022/09/06 07:30:54;;;;;;;9.40;6.15;;;18.80;96.50;;;;;;6131436;23;20350;-87
2022/09/06 07:33:20;;;;;;;9.63;5.90;;;18.80;96.30;;;;;;6130987;23;20047;-86
2022/09/06 07:36:00;;;;;;;7.70;5.28;;;18.80;96.30;;;;;;6131311;23;20514;-91
2022/09/06 07:38:27;;;;;;;7.00;4.65;;;18.90;96.40;;;;;;6155763;23;20017;-86
2022/09/06 07:40:55;;;;;;;8.98;5.90;;;18.90;96.30;;;;;;6155440;23;20439;-86
2022/09/06 07:43:20;;;;;;;8.70;6.20;;;18.90;96.40;;;;;;6107523;23;20053;-88
2022/09/06 07:45:46;;;;;;;7.85;5.43;;;18.90;96.40;;;;;;6131843;23;20426;-88
2022/09/06 07:48:12;;;;;;;7.50;5.53;;;18.90;96.40;;;;;;6106976;23;20102;-86
2022/09/06 07:50:38;;;;;;;8.57;5.70;;;18.90;96.50;;;;;;6131294;23;20020;-87
2022/09/06 07:53:08;;;;;;;8.52;5.55;;;18.90;96.40;;;;;;6107111;23;20025;-86
2022/09/06 07:55:34;;;;;;;8.80;6.13;;;18.90;96.50;;;;;;6131049;23;20017;-86
2022/09/06 07:57:59;;;;;;;7.60;5.13;;;19.00;96.60;;;;;;6131205;23;20032;-85
2022/09/06 08:00:26;;;;;;;8.45;5.60;;;19.10;96.70;;;;;;6130871;23;20052;-86
2022/09/06 08:02:51;;;;;;;;;;;19.30;96.70;;;;;;6131337;23;20021;-86
2022/09/06 08:05:17;;;;;;;9.75;6.00;;;19.40;96.80;;;;;;6156572;22;19916;-87
2022/09/06 08:07:43;;;;;;;9.80;5.78;;;19.50;96.70;;;;;;6082795;23;20059;-87
2022/09/06 08:10:09;;;;;;;10.52;6.07;;;19.50;96.60;;;;;;6155380;23;20067;-86
2022/09/06 08:12:34;;;;;;;8.85;6.30;;;19.60;96.60;;;;;;6130654;23;20021;-90
2022/09/06 08:15:00;;;;;;;9.40;6.57;;;19.70;96.60;;;;;;6106650;23;20017;-87
2022/09/06 08:17:26;;;;;;;8.90;5.68;;;19.80;96.60;;;;;;6082604;23;20350;-86
2022/09/06 08:19:51;;;;;;;7.95;5.35;;;20.00;96.70;;;;;;6131026;23;20468;-87
2022/09/06 08:22:17;;;;;;;8.77;6.07;;;20.10;96.60;;;;;;6107861;23;20009;-86
2022/09/06 08:24:43;;;;;;;8.50;5.95;;;20.20;96.50;;;;;;6106760;23;20450;-88
2022/09/06 08:27:11;;;;;;;8.80;6.00;;;20.30;96.40;;;;;;6155810;23;20096;-86
2022/09/06 08:29:37;;;;;;;8.98;5.55;;;20.40;96.40;;;;;;6130939;23;20091;-86
2022/09/06 08:32:03;;;;;;;8.23;5.78;;;20.50;96.30;;;;;;6106797;23;20469;-87
2022/09/06 08:34:29;;;;;;;9.40;5.95;;;20.60;96.30;;;;;;6131033;23;20021;-87
2022/09/06 08:36:55;;;;;;;10.18;6.60;;;20.70;96.20;;;;;;6106772;23;20047;-86
2022/09/06 08:39:20;;;;;;;8.05;5.30;;;20.70;96.10;;;;;;6130896;23;20013;-87
2022/09/06 08:42:04;;;;;;;8.07;5.50;;;20.80;96.10;;;;;;6107196;23;20091;-86
2022/09/06 08:44:44;;;;;;;8.15;5.63;;;20.90;96.00;;;;;;6130860;23;20071;-87
2022/09/06 08:47:15;;;;;;;8.60;5.93;;;21.00;96.10;;;;;;6131100;23;20052;-87
2022/09/06 08:49:44;;;;;;;8.93;5.72;;;21.00;95.90;;;;;;6130973;23;20013;-86
2022/09/06 08:52:13;;;;;;;8.80;5.95;;;21.00;95.80;;;;;;6130677;23;20082;-88
2022/09/06 08:55:00;;;;;;;11.32;6.68;;;21.10;95.80;;;;;;6130752;23;20017;-87
2022/09/06 08:57:48;;;;;;;8.27;6.15;;;21.10;95.80;;;;;;6132260;23;20150;-86
2022/09/06 09:00:13;;;;;;;;;;;21.10;95.70;;;;;;6130930;23;20054;-86
2022/09/06 09:02:46;;;;;;;8.52;6.15;;;21.10;95.80;;;;;;6131077;23;19977;-87
2022/09/06 09:05:33;;;;;;;9.90;6.20;;;21.10;95.70;;;;;;6130138;23;20449;-87
2022/09/06 09:08:04;;;;;;;9.00;5.90;;;21.20;96.00;;;;;;6130267;23;20024;-87
2022/09/06 09:10:38;;;;;;;8.35;5.43;;;21.30;95.70;;;;;;6130679;23;20029;-86
2022/09/06 09:13:08;;;;;;;9.13;6.22;;;21.30;95.70;;;;;;6129671;23;20025;-86
2022/09/06 09:15:36;;;;;;;9.35;6.05;;;21.40;95.70;;;;;;6130075;23;20024;-87
2022/09/06 09:18:02;;;;;;;10.02;6.90;;;21.40;95.70;;;;;;6130485;23;20396;-88
2022/09/06 09:20:28;;;;;;;8.98;6.00;;;21.50;95.60;;;;;;6129968;23;20009;-87
2022/09/06 09:22:55;;;;;;;9.95;6.10;;;21.60;95.60;;;;;;6130723;23;20025;-87
2022/09/06 09:25:22;;;;;;;9.90;6.65;;;21.60;95.60;;;;;;6130481;23;20016;-88
2022/09/06 09:27:56;;;;;;;8.75;5.75;;;21.70;95.50;;;;;;6130650;23;20047;-87
2022/09/06 09:30:24;;;;;;;8.63;6.53;;;21.80;95.40;;;;;;6130625;23;20023;-87
2022/09/06 09:32:50;;;;;;;8.80;5.72;;;21.80;95.40;;;;;;6130647;23;20376;-86
2022/09/06 09:35:32;;;;;;;9.45;5.88;;;21.90;95.40;;;;;;6130488;23;20063;-87
2022/09/06 09:38:10;;;;;;;9.15;5.97;;;22.10;95.40;;;;;;6130595;23;20028;-90
2022/09/06 09:40:48;;;;;;;11.98;5.85;;;22.20;95.30;;;;;;6132969;23;20066;-87
2022/09/06 09:43:23;;;;;;;8.77;5.70;;;22.30;95.20;;;;;;6131077;23;20109;-87
2022/09/06 09:46:31;;;;;;;8.88;5.68;;;22.40;94.90;;;;;;6130496;23;20338;-87
2022/09/06 09:49:10;;;;;;;7.95;5.65;;;22.40;94.80;;;;;;6129970;23;20017;-86
2022/09/06 09:51:45;;;;;;;7.43;5.18;;;22.40;94.70;;;;;;6130073;23;20017;-87
2022/09/06 09:54:13;;;;;;;7.70;5.15;;;22.50;94.70;;;;;;6130742;23;20343;-88
2022/09/06 09:56:44;;;;;;;7.65;4.63;;;22.50;94.40;;;;;;6130727;23;20342;-88
2022/09/06 09:59:24;;;;;;;7.80;5.32;;;22.50;94.40;;;;;;6155156;23;20032;-88
2022/09/06 10:01:56;;;;;;;7.97;5.25;;;22.50;94.20;;;;;;6131464;22;20438;-88
2022/09/06 10:04:32;;;;;;;8.60;5.45;;;22.50;94.30;;;;;;6130700;23;20340;-89
2022/09/06 10:07:23;;;;;;;7.63;5.47;;;22.40;94.20;;;;;;6155097;23;20048;-89
2022/09/06 10:09:57;;;;;;;8.90;5.53;;;22.40;94.20;;;;;;6130322;23;20021;-88
2022/09/06 10:12:34;;;;;;;7.57;5.10;;;22.30;94.20;;;;;;6130473;23;20028;-89
2022/09/06 10:15:01;;;;;;;8.13;5.55;;;22.20;94.20;;;;;;6130612;23;20024;-88
2022/09/06 10:17:34;;;;;;;7.88;5.43;;;22.20;94.10;;;;;;6130814;23;20040;-88
2022/09/06 10:20:10;;;;;;;7.85;5.25;;;22.20;94.20;;;;;;6131586;23;20017;-87
2022/09/06 10:22:45;;;;;;;7.77;5.47;;;22.10;94.10;;;;;;6156528;23;20028;-87
2022/09/06 10:25:38;;;;;;;7.65;5.30;;;22.20;94.10;;;;;;6131527;23;20473;-87
2022/09/06 10:28:16;;;;;;;7.28;4.85;;;22.20;94.00;;;;;;6131504;23;20074;-89
2022/09/06 10:31:12;;;;;;;6.70;5.10;;;22.30;94.10;;;;;;6129780;23;20017;-88
2022/09/06 10:34:13;;;;;;;8.43;5.38;;;22.40;94.00;;;;;;6130464;23;20496;-87
2022/09/06 10:37:09;;;;;;;7.05;4.72;;;22.50;93.90;;;;;;6119833;23;20035;-88
2022/09/06 10:39:48;;;;;;;6.93;4.85;;;22.60;93.80;;;;;;6132077;23;20027;-87
2022/09/06 10:42:24;;;;;;;7.30;4.60;;;22.70;93.60;;;;;;6131691;23;20339;-89
2022/09/06 10:45:17;;;;;;;7.25;5.10;;;22.80;93.70;;;;;;6131631;23;20024;-86
2022/09/06 10:47:56;;;;;;;7.65;5.25;;;22.90;93.50;;;;;;6131198;23;20054;-86
2022/09/06 10:50:36;;;;;;;7.18;4.32;;;23.00;93.30;;;;;;6130349;23;20049;-88
2022/09/06 10:53:15;;;;;;;7.32;4.93;;;23.10;93.20;;;;;;6131549;23;20021;-87
2022/09/06 10:55:44;;;;;;;8.88;5.47;;;23.10;93.10;;;;;;6130350;23;20020;-87
2022/09/06 10:58:11;;;;;;;7.32;4.90;;;23.20;92.90;;;;;;6131729;23;20024;-89
2022/09/06 11:00:48;;;;;;;8.13;5.25;;;23.10;92.90;;;;;;6131835;23;20044;-88
2022/09/06 11:03:39;;;;;;;6.28;4.22;;;23.10;92.80;;;;;;6131239;23;20462;-88
2022/09/06 11:06:19;;;;;;;7.28;4.40;;;23.20;92.90;;;;;;6131667;23;20053;-85
2022/09/06 11:09:01;;;;;;;8.55;5.18;;;23.40;92.80;;;;;;6130988;23;20507;-86
2022/09/06 11:11:41;;;;;;;7.57;4.53;;;23.60;92.90;;;;;;6130870;23;20450;-87
2022/09/06 11:14:13;;;;;;;7.15;4.70;;;23.80;92.70;;;;;;6131019;23;20060;-86
2022/09/06 11:17:09;;;;;;;6.30;3.95;;;23.90;92.40;;;;;;6130991;23;20502;-89
2022/09/06 11:19:53;;;;;;;6.35;4.18;;;24.10;92.20;;;;;;6131132;23;20013;-85
2022/09/06 11:23:02;;;;;;;7.13;4.57;;;24.20;92.00;;;;;;6131371;23;20036;-84
2022/09/06 11:26:11;;;;;;;7.00;4.32;;;24.30;91.70;;;;;;6155907;23;20074;-86
2022/09/06 11:29:21;;;;;;;7.15;4.60;;;24.40;91.70;;;;;;6155636;23;20021;-86
2022/09/06 11:32:17;;;;;;;7.50;4.72;;;24.60;91.10;;;;;;6131998;23;20043;-88
2022/09/06 11:34:58;;;;;;;6.07;4.05;;;24.60;91.10;;;;;;6130914;23;20017;-88
2022/09/06 11:37:34;;;;;;;6.97;4.82;;;24.70;91.10;;;;;;6130936;23;20093;-85
2022/09/06 11:40:26;;;;;;;6.40;4.57;;;24.80;91.00;;;;;;6130710;23;20351;-85
2022/09/06 11:42:51;;;;;;;7.43;4.25;;;24.90;90.80;;;;;;6130766;23;20435;-85
2022/09/06 11:45:21;;;;;;;;;;;25.00;90.70;;;;;;6155921;23;20043;-85
2022/09/06 11:47:51;;;;;;;6.10;3.88;;;25.10;90.40;;;;;;6130719;23;19916;-88
2022/09/06 11:50:23;;;;;;;6.22;3.80;;;25.20;90.60;;;;;;6131024;23;20070;-86
2022/09/06 11:53:03;;;;;;;5.95;4.00;;;25.30;90.40;;;;;;6130956;23;20031;-86
2022/09/06 11:55:47;;;;;;;6.63;4.28;;;25.40;90.20;;;;;;6130968;23;20095;-86
2022/09/06 11:58:15;;;;;;;6.50;3.92;;;25.50;90.00;;;;;;6130987;23;20438;-86
2022/09/06 12:00:42;;;;;;;6.85;4.35;;;25.50;90.10;;;;;;6131152;23;20020;-87
2022/09/06 12:03:29;;;;;;;7.28;3.75;;;25.60;89.40;;;;;;6130639;23;20017;-85
2022/09/06 12:06:21;;;;;;;8.10;4.10;;;25.50;89.30;;;;;;6130648;23;20020;-86
2022/09/06 12:08:51;;;;;;;7.32;3.97;;;25.50;88.80;;;;;;6131006;23;20032;-87
2022/09/06 12:11:43;;;;;;;6.38;4.32;;;25.60;89.10;;;;;;6126499;23;20057;-86
2022/09/06 12:14:29;;;;;;;5.80;3.88;;;25.80;88.60;;;;;;6130578;23;20455;-86
2022/09/06 12:17:03;;;;;;;5.72;3.95;;;25.80;88.10;;;;;;6155220;23;20024;-87
2022/09/06 12:19:48;;;;;;;5.53;3.55;;;25.90;88.40;;;;;;6155542;23;20020;-89
2022/09/06 12:22:28;;;;;;;5.85;3.38;;;26.00;86.80;;;;;;6130853;23;20021;-87
2022/09/06 12:25:09;;;;;;;6.10;3.85;;;26.10;87.40;;;;;;6130676;23;20066;-88
2022/09/06 12:27:48;;;;;;;5.95;3.50;;;26.10;87.00;;;;;;6131433;23;20017;-87
2022/09/06 12:30:36;;;;;;;;;;;26.10;87.30;;;;;;6131395;23;20021;-87
2022/09/06 12:33:10;;;;;;;5.38;3.17;;;26.10;86.80;;;;;;6152405;22;19924;-88
2022/09/06 12:35:36;;;;;;;6.47;3.78;;;26.20;86.80;;;;;;6160126;23;20034;-87
2022/09/06 12:38:31;;;;;;;4.97;3.15;;;26.20;86.50;;;;;;6141324;23;20103;-89
2022/09/06 12:40:59;;;;;;;5.35;3.45;;;26.20;85.50;;;;;;6184052;23;20028;-87
2022/09/06 12:43:34;;;;;;;4.50;3.08;;;26.20;85.80;;;;;;6136940;22;20028;-86
2022/09/06 12:46:01;;;;;;;5.50;3.55;;;26.20;86.10;;;;;;6185531;23;20027;-85
2022/09/06 12:48:34;;;;;;;6.50;3.40;;;26.30;85.60;;;;;;6184966;23;20016;-85
2022/09/06 12:51:01;;;;;;;5.57;3.40;;;26.30;85.30;;;;;;6184898;23;20086;-85
2022/09/06 12:53:27;;;;;;;6.03;3.28;;;26.40;85.50;;;;;;6209962;23;20021;-85
2022/09/06 12:56:13;;;;;;;5.38;2.88;;;26.40;85.30;;;;;;6184869;23;20023;-86
2022/09/06 12:58:39;;;;;;;5.07;3.08;;;26.50;85.30;;;;;;6184981;23;20017;-86
2022/09/06 13:01:11;;;;;;;5.10;3.08;;;26.60;85.40;;;;;;6184754;23;20115;-84
2022/09/06 13:03:44;;;;;;;5.43;2.80;;;26.60;85.00;;;;;;6184041;23;20016;-86
2022/09/06 13:06:18;;;;;;;5.35;3.33;;;26.60;85.10;;;;;;6183009;23;20023;-86
2022/09/06 13:08:50;;;;;;;5.85;3.20;;;26.70;84.60;;;;;;6209805;23;20150;-86
2022/09/06 13:11:26;;;;;;;4.63;3.50;;;26.70;84.00;;;;;;6184417;23;20020;-86
2022/09/06 13:13:53;;;;;;;4.97;3.15;;;26.70;84.20;;;;;;6184813;22;20052;-87
2022/09/06 13:16:25;;;;;;;4.93;3.35;;;26.70;84.00;;;;;;6184841;23;20013;-85